Dennis J. Pasentine — WDF2813 — position and weather

sailwx.info

Track history (hours):
 
Tides and Currents Weather Stations Pressure Air Temp Water Temp Dewpoint Dewpoint Depression Visibility Wind Speed Wind Dir Waves Ship Positions

Dennis J. Pasentine

Owner: Florida Marine Transporters, Inc., Mandeville, LA. More information available from US FCC via Universal Licensing System and Coast Guard Vessel Documentation Center.

Last reported at 2016-Sep-25 04:33 UTC. Time now 2016-Sep-29 11:51 UTC.
Position N 32°41' W 091°04'.

Length 42 m.

Type: Towing. MMSI: 367432180.

Date/timePositionNaut miles runAvg speedWind from/ knotsBaromVisibWave heightAir tempDewpointWater temp
2016-Sep-25 04:33N 32°41' W 091°04'5 1.2
2016-Sep-25 00:32N 32°39' W 091°09'6 3.1
2016-Sep-24 22:33N 32°33' W 091°06'4 4.0
2016-Sep-24 21:33N 32°29' W 091°07'8 4.1
2016-Sep-24 19:33N 32°24' W 090°59'3 3.0
2016-Sep-24 18:33N 32°21' W 090°59'4 3.9
2016-Sep-24 17:33N 32°20' W 090°54'3 3.4
2016-Sep-24 16:33N 32°17' W 090°56'1 0.3
2016-Sep-24 14:33N 32°17' W 090°57'2 1.0
2016-Sep-24 12:33N 32°15' W 090°58'8 4.0
2016-Sep-24 10:33N 32°08' W 091°01'4 4.3
2016-Sep-24 09:31N 32°08' W 091°06'  
2016-Sep-18 19:34N 29°57' W 090°10'  
Track history (hours):
 
Tides and Currents Weather Stations Pressure Air Temp Water Temp Dewpoint Dewpoint Depression Visibility Wind Speed Wind Dir Waves Ship Positions

Dennis J. Pasentine

Owner: Florida Marine Transporters, Inc., Mandeville, LA. More information available from US FCC via Universal Licensing System and Coast Guard Vessel Documentation Center.

Last reported at 2016-Sep-25 04:33 UTC. Time now 2016-Sep-29 11:51 UTC.
Position N 32°41' W 091°04'.

Length 42 m.

Type: Towing. MMSI: 367432180.

Date/timePositionNaut miles runAvg speedWind from/ knotsBaromVisibWave heightAir tempDewpointWater temp
2016-Sep-25 04:33N 32°41' W 091°04'5 1.2
2016-Sep-25 00:32N 32°39' W 091°09'6 3.1
2016-Sep-24 22:33N 32°33' W 091°06'4 4.0
2016-Sep-24 21:33N 32°29' W 091°07'8 4.1
2016-Sep-24 19:33N 32°24' W 090°59'3 3.0
2016-Sep-24 18:33N 32°21' W 090°59'4 3.9
2016-Sep-24 17:33N 32°20' W 090°54'3 3.4
2016-Sep-24 16:33N 32°17' W 090°56'1 0.3
2016-Sep-24 14:33N 32°17' W 090°57'2 1.0
2016-Sep-24 12:33N 32°15' W 090°58'8 4.0
2016-Sep-24 10:33N 32°08' W 091°01'4 4.3
2016-Sep-24 09:31N 32°08' W 091°06'  
2016-Sep-18 19:34N 29°57' W 090°10'  

Dump ship's entire track history